Archival Weather

Chicago O'Hare International

Chicago, Illinois (KORD)

Report from: Monday, January 23, 2023 9:31 AM CST
Current time: Thursday, July 18, 2024 10:49 PM CDT

Current weather – Weather history – Daily summaries
Weather forecast

Temperature-3.3°C (26.1°F)
Wind chill-8.8°C (16.2°F)
Dew point-6.1°C (21.0°F)
Winds 9 kts (4.6 m/s, 10.4 mph) West-Southwest (240°)
Visibility9 mi. (14.5 km)
Clouds Ceiling: Overcast 1,000 ft. (305 m)
Altimeter30.09 in.Hg (1019 mB)
Relative humidity81 %
Density altitude-2,387 ft. (-727 m)
Remarks Automated weather observing station with precipitation discriminator
Flight conditions Marginal Visual Meteorological Conditions
Raw dataKORD 231531Z 24009KT 9SM OVC010 M03/M06 A3009 RMK AO2 T10331061
An error has occurred. This application may no longer respond until reloaded. Reload 🗙